Zürich Airport

Airport
ICAO code: 
LSZH
IATA Code: 
ZRH
Summary
ICAO Region: 
EUR
Territory: 
Location: 
Kloten, Zürich
Serving: 
Zürich
Elevation: 
1416 ft
Coordinates: 
Aerial View: 
47° 27' 52.999" N, 8° 32' 57.001" E
Metar
Observation
LSZH 041020Z 15007KT 9999 RA FEW010 OVC045 04/03 Q1002 TEMPO NSW
Station
Zurich-Kloten
Date/Time
2021-12-04 10:20:00
Wind direction
150°
Wind speed
07 kts
Lowest cloud amount
few clouds
Temperature
4°C
Dew point
3°C
Humidity
93%
QNH
1002 hPa
Weather condition
rain

An airport serving Grenchen, a municipality in the district of Lebern in the canton of Solothurn in Switzerland.

Climatology

Temperate Marine climate/Oceanic climate (Köppen climate classification Cfb).

Runways

Designator Length Width Surface Rops
10/28 2500 60 CON Yes/Yes
14/32 3300 60 CON Yes/Yes
16/34 3700 60 CON Yes/Yes

SKYbrary Partners:

Safety knowledge contributed by: